createdAt,value
2022-12-22T00:01:50.409Z,1.92
2022-12-22T00:07:12.602Z,1.70
2022-12-22T00:12:34.674Z,2.70
2022-12-22T00:17:55.435Z,2.70
2022-12-22T00:23:17.561Z,1.63
2022-12-22T00:28:38.027Z,2.13
2022-12-22T00:33:59.005Z,2.75
2022-12-22T00:39:21.082Z,3.45
2022-12-22T00:44:41.924Z,1.30
2022-12-22T00:50:06.267Z,2.63
2022-12-22T00:55:33.691Z,2.85
2022-12-22T01:00:54.430Z,3.20
2022-12-22T01:06:18.341Z,1.17
2022-12-22T01:11:40.344Z,2.78
2022-12-22T01:17:01.061Z,4.22
2022-12-22T01:22:21.984Z,3.95
2022-12-22T01:27:43.990Z,3.08
2022-12-22T01:33:04.819Z,1.63
2022-12-22T01:38:25.468Z,2.53
2022-12-22T01:43:48.096Z,2.00
2022-12-22T01:49:08.903Z,5.85
2022-12-22T01:54:31.677Z,6.13
2022-12-22T01:59:53.883Z,6.05
2022-12-22T02:05:17.259Z,2.45
2022-12-22T02:10:52.827Z,3.22
2022-12-22T02:16:20.160Z,9.13
2022-12-22T02:21:44.043Z,11.68
2022-12-22T02:27:08.930Z,13.35
2022-12-22T02:32:30.275Z,17.50
2022-12-22T02:38:00.237Z,23.17
2022-12-22T02:43:32.129Z,24.25
2022-12-22T02:48:59.571Z,20.60
2022-12-22T02:54:22.399Z,15.85
2022-12-22T02:59:44.226Z,23.25
2022-12-22T03:05:04.979Z,20.50
2022-12-22T03:10:26.886Z,22.80
2022-12-22T03:15:48.781Z,11.23
2022-12-22T03:21:09.669Z,2.10
2022-12-22T03:26:11.610Z,1.25
2022-12-22T03:31:15.179Z,1.48
2022-12-22T03:36:17.151Z,2.15
2022-12-22T03:41:37.859Z,2.25
2022-12-22T03:46:41.190Z,1.13
2022-12-22T03:51:45.992Z,1.40
2022-12-22T03:56:48.479Z,17.05
2022-12-22T04:01:53.966Z,22.27
2022-12-22T04:06:56.403Z,23.08
2022-12-22T04:12:17.179Z,22.15
2022-12-22T04:17:20.467Z,19.65
2022-12-22T04:22:22.447Z,22.70
2022-12-22T04:27:24.456Z,20.83
2022-12-22T04:32:27.740Z,23.42
2022-12-22T04:37:29.783Z,20.98
2022-12-22T04:42:31.736Z,30.67
2022-12-22T04:47:35.028Z,58.47
2022-12-22T04:52:36.975Z,75.10
2022-12-22T04:57:41.090Z,49.08
2022-12-22T05:02:44.683Z,61.88
2022-12-22T05:07:46.801Z,51.05
2022-12-22T05:12:54.651Z,22.42
2022-12-22T05:17:59.126Z,26.00
2022-12-22T05:23:01.117Z,29.02
2022-12-22T05:28:03.255Z,27.77
2022-12-22T05:33:06.568Z,20.35
2022-12-22T05:38:08.536Z,15.60
2022-12-22T05:43:10.524Z,17.00
2022-12-22T05:48:13.932Z,25.23
2022-12-22T05:53:15.877Z,20.77
2022-12-22T05:58:17.843Z,16.15
2022-12-22T06:03:21.177Z,11.70
2022-12-22T06:08:23.686Z,11.88
2022-12-22T06:13:26.592Z,13.55
2022-12-22T06:18:31.044Z,5.25
2022-12-22T06:23:33.037Z,3.50
2022-12-22T06:28:35.000Z,7.45
2022-12-22T06:33:38.543Z,9.50
2022-12-22T06:38:40.625Z,10.63
2022-12-22T06:43:42.599Z,20.67
2022-12-22T06:48:46.897Z,21.50
2022-12-22T06:53:48.878Z,25.25
2022-12-22T06:58:50.921Z,16.77
2022-12-22T07:03:54.295Z,4.35
2022-12-22T07:08:56.293Z,17.60
2022-12-22T07:13:58.243Z,11.60
2022-12-22T07:19:01.623Z,1.35
2022-12-22T07:24:04.604Z,1.45
2022-12-22T07:29:06.711Z,1.45
2022-12-22T07:34:09.999Z,1.55
2022-12-22T07:39:12.961Z,0.50
2022-12-22T07:44:14.930Z,1.83
2022-12-22T07:49:36.873Z,0.68
2022-12-22T07:54:42.127Z,0.60
2022-12-22T07:59:44.413Z,1.08
2022-12-22T08:04:47.833Z,1.23
2022-12-22T08:09:49.859Z,0.90
2022-12-22T08:14:51.853Z,1.05
2022-12-22T08:19:55.466Z,1.30
2022-12-22T08:24:57.621Z,1.15
2022-12-22T08:30:02.121Z,1.17
2022-12-22T08:35:07.959Z,1.27
2022-12-22T08:40:14.469Z,1.42
2022-12-22T08:45:16.655Z,1.88
2022-12-22T08:50:20.196Z,2.45
2022-12-22T08:55:22.147Z,0.93
2022-12-22T09:00:24.614Z,1.75
2022-12-22T09:05:27.917Z,1.50
2022-12-22T09:15:31.679Z,2.65
2022-12-22T09:20:34.971Z,1.83
2022-12-22T09:25:36.942Z,1.50
2022-12-22T09:30:39.025Z,1.30
2022-12-22T09:35:42.337Z,1.42
2022-12-22T09:40:44.422Z,1.33
2022-12-22T09:45:46.447Z,1.85
2022-12-22T09:50:49.922Z,2.13
2022-12-22T10:01:07.910Z,2.20
2022-12-22T10:06:17.283Z,2.13
2022-12-22T10:11:19.557Z,1.40
2022-12-22T10:16:24.911Z,2.55
2022-12-22T10:21:28.341Z,2.75
2022-12-22T10:31:39.968Z,2.13
2022-12-22T10:36:48.797Z,1.67
2022-12-22T10:41:55.097Z,3.58
2022-12-22T10:46:59.838Z,2.15
2022-12-22T10:52:14.633Z,3.30
2022-12-22T10:57:28.748Z,3.85
2022-12-22T11:02:38.053Z,2.60
2022-12-22T11:07:44.904Z,1.70
2022-12-22T11:13:07.274Z,2.17
2022-12-22T11:23:30.046Z,2.70
2022-12-22T11:28:43.802Z,1.67
2022-12-22T11:34:02.102Z,3.42
2022-12-22T11:39:12.221Z,1.92
2022-12-22T11:44:34.848Z,3.38
2022-12-22T11:50:03.328Z,2.60
2022-12-22T11:55:30.890Z,3.40
2022-12-22T12:01:12.228Z,3.85
2022-12-22T12:06:25.116Z,2.88
2022-12-22T12:11:35.722Z,2.47
2022-12-22T12:16:44.238Z,3.55
2022-12-22T12:21:51.891Z,7.47
2022-12-22T12:27:04.309Z,6.43
2022-12-22T12:32:14.785Z,4.18
2022-12-22T12:37:26.437Z,2.22
2022-12-22T12:42:33.443Z,3.72
2022-12-22T12:47:35.824Z,2.65
2022-12-22T12:53:14.918Z,4.30
2022-12-22T12:58:49.586Z,2.58
2022-12-22T13:04:07.171Z,3.03
2022-12-22T13:14:57.785Z,2.45
2022-12-22T13:20:00.063Z,3.10
2022-12-22T13:25:03.963Z,3.03
2022-12-22T13:30:14.218Z,2.60
2022-12-22T13:35:42.998Z,3.13
2022-12-22T13:40:44.189Z,3.13
2022-12-22T13:45:50.730Z,3.63
2022-12-22T13:50:54.983Z,5.82
2022-12-22T13:55:57.496Z,1.15
2022-12-22T14:01:17.024Z,1.98
2022-12-22T14:06:29.601Z,3.00
2022-12-22T14:11:31.575Z,4.38
2022-12-22T14:16:35.137Z,1.55
2022-12-22T14:21:37.213Z,2.45
2022-12-22T14:26:39.440Z,2.42
2022-12-22T14:31:53.967Z,1.58
2022-12-22T14:36:58.765Z,2.80
2022-12-22T14:42:02.671Z,2.72
2022-12-22T14:47:22.884Z,2.20
2022-12-22T14:52:33.188Z,4.22
2022-12-22T14:57:37.874Z,2.78
2022-12-22T15:02:51.246Z,2.58
2022-12-22T15:08:06.661Z,4.68
2022-12-22T15:13:15.418Z,4.03
2022-12-22T15:18:23.777Z,4.35
2022-12-22T15:23:25.847Z,4.78
2022-12-22T15:28:27.950Z,4.82
2022-12-22T15:33:31.371Z,4.88
2022-12-22T15:38:38.555Z,3.08
2022-12-22T15:43:58.661Z,5.68
2022-12-22T15:49:02.537Z,3.70
2022-12-22T15:59:12.535Z,5.00
2022-12-22T16:04:15.857Z,6.13
2022-12-22T16:09:21.665Z,6.30
2022-12-22T16:14:24.500Z,3.70
2022-12-22T16:19:27.836Z,3.80
2022-12-22T16:24:34.816Z,4.75
2022-12-22T16:29:37.386Z,4.50
2022-12-22T16:34:40.819Z,5.18
2022-12-22T16:39:43.087Z,4.93
2022-12-22T16:44:48.042Z,5.30
2022-12-22T16:49:51.812Z,4.05
2022-12-22T16:54:53.846Z,3.20
2022-12-22T16:59:58.878Z,4.25
2022-12-22T17:05:03.167Z,6.40
2022-12-22T17:10:06.345Z,5.13
2022-12-22T17:15:16.418Z,5.65
2022-12-22T17:20:22.146Z,7.05
2022-12-22T17:25:26.982Z,6.03
2022-12-22T17:30:29.072Z,4.72
2022-12-22T17:35:41.055Z,6.25
2022-12-22T17:40:44.531Z,5.97
2022-12-22T17:45:47.861Z,6.05
2022-12-22T17:50:51.439Z,6.38
2022-12-22T17:56:09.534Z,7.30
2022-12-22T18:01:23.684Z,5.45
2022-12-22T18:06:33.514Z,4.38
2022-12-22T18:16:44.360Z,7.38
2022-12-22T18:21:48.233Z,4.55
2022-12-22T18:26:50.224Z,6.15
2022-12-22T18:31:52.309Z,9.27
2022-12-22T18:36:55.718Z,10.25
2022-12-22T18:41:58.497Z,5.85
2022-12-22T18:47:00.574Z,11.15
2022-12-22T18:52:04.561Z,4.63
2022-12-22T18:57:13.174Z,5.68
2022-12-22T19:02:22.162Z,6.13
2022-12-22T19:07:25.848Z,6.90
2022-12-22T19:17:30.026Z,7.85
2022-12-22T19:22:33.456Z,7.22
2022-12-22T19:27:35.466Z,6.50
2022-12-22T19:32:41.893Z,6.22
2022-12-22T19:37:46.288Z,5.90
2022-12-22T19:42:50.965Z,6.05
2022-12-22T19:47:53.872Z,5.82
2022-12-22T19:52:59.176Z,7.03
2022-12-22T19:58:02.348Z,6.10
2022-12-22T20:03:05.997Z,6.10
2022-12-22T20:08:10.052Z,8.55
2022-12-22T20:13:16.272Z,4.57
2022-12-22T20:18:21.760Z,5.53
2022-12-22T20:23:26.567Z,6.60
2022-12-22T20:28:30.670Z,6.63
2022-12-22T20:33:33.543Z,7.25
2022-12-22T20:38:39.817Z,5.90
2022-12-22T20:43:41.908Z,9.90
2022-12-22T20:48:47.034Z,6.68
2022-12-22T20:53:51.295Z,6.65
2022-12-22T20:58:54.163Z,10.60
2022-12-22T21:03:56.273Z,5.20
2022-12-22T21:09:00.402Z,4.53
2022-12-22T21:14:02.451Z,6.63
2022-12-22T21:19:04.655Z,6.25
2022-12-22T21:24:08.243Z,8.38
2022-12-22T21:34:15.973Z,10.77
2022-12-22T21:39:26.017Z,8.57
2022-12-22T21:44:29.592Z,6.32
2022-12-22T21:49:33.344Z,6.88
2022-12-22T21:54:36.688Z,5.55
2022-12-22T21:59:38.908Z,8.60
2022-12-22T22:04:40.885Z,4.10
2022-12-22T22:09:44.216Z,5.10
2022-12-22T22:14:46.262Z,4.72
2022-12-22T22:19:48.230Z,4.03
2022-12-22T22:24:51.572Z,4.07
2022-12-22T22:29:53.541Z,7.88
2022-12-22T22:34:55.548Z,5.57
2022-12-22T22:39:58.906Z,3.97
2022-12-22T22:45:00.894Z,6.20
2022-12-22T22:50:06.575Z,4.28
2022-12-22T22:55:12.627Z,3.65
2022-12-22T23:00:17.720Z,4.60
2022-12-22T23:05:22.936Z,5.70
2022-12-22T23:10:26.565Z,3.55
2022-12-22T23:15:28.524Z,3.83
2022-12-22T23:20:30.507Z,2.97
2022-12-22T23:25:34.469Z,2.80
2022-12-22T23:30:38.260Z,4.38
2022-12-22T23:35:42.129Z,3.45
2022-12-22T23:40:54.503Z,2.50
2022-12-22T23:45:57.231Z,1.75
2022-12-22T23:50:59.207Z,2.40
2022-12-22T23:56:03.594Z,2.67
